»·PEaware :: N335AK KVGT-KRNO

N335AK :: KVGT-KRNO

FLIGHT INFORMATION

Flight Status: Arrived
Operator: Privately registered:
United States
More flights under this callsign
Pilot: Gabor H. (24209)
Aircraft: Unknown
(EPIC)
More flights by this aircraft type
Origin: KVGT North Las Vegas
United States
Destination: KRNO Reno/Tahoe Intl
United States
More flights between these airports :: More routes between these airports
Route: NOTWN5 LAS SHEAD BTY FMG
File this flight plan on PilotEdge
Remarks:
Altitude:
(Current/Filed)
28,000ft
Speed:
(Current/Filed)
315kts
Departed: 13-Jul-20 02:51 PM
Arrived: 13-Jul-20 04:02 PM
Distance/Time
Traveled:
293nm/1:10
Distance/Time
To Go:
Arrived

Flight Plot

Page will automatically refresh every two minutes.

Flight plan parsing failed; only flown route is shown


Map Options




Map Legend


Flown Route
Filed Route
Departure Airport
Arrival Airport
Navaid (VOR, NDB)
Fix

Horizontal Profiles

Position Reports

Time Latitude Longitude Heading Altitude Ground
Speed
13-Jul-20 14:28 36.209410 -115.198606 314 2196ft 0kts
13-Jul-20 14:29 36.209410 -115.198606 314 2196ft 0kts
13-Jul-20 14:30 36.209410 -115.198606 314 2196ft 0kts
13-Jul-20 14:31 36.209410 -115.198606 314 2196ft 0kts
13-Jul-20 14:32 36.209410 -115.198606 314 2196ft 0kts
13-Jul-20 14:34 36.209410 -115.198606 314 2196ft 0kts
13-Jul-20 14:35 36.209410 -115.198606 314 2196ft 0kts
13-Jul-20 14:36 36.209410 -115.198606 314 2196ft 0kts
13-Jul-20 14:37 36.209410 -115.198606 314 2196ft 0kts
13-Jul-20 14:38 36.209410 -115.198606 314 2196ft 0kts
13-Jul-20 14:39 36.209410 -115.198606 314 2196ft 0kts
13-Jul-20 14:40 36.209410 -115.198606 314 2196ft 0kts
13-Jul-20 14:41 36.209410 -115.198606 314 2196ft 0kts
13-Jul-20 14:42 36.209410 -115.198606 314 2196ft 0kts
13-Jul-20 14:43 36.209410 -115.198606 314 2196ft 0kts
13-Jul-20 14:44 36.209410 -115.198606 314 2196ft 0kts
13-Jul-20 14:45 36.209410 -115.198606 314 2196ft 0kts
13-Jul-20 14:46 36.210148 -115.198731 350 2196ft 6kts
13-Jul-20 14:47 36.211587 -115.196012 59 2194ft 11kts
13-Jul-20 14:48 36.212873 -115.190830 88 2183ft 20kts
13-Jul-20 14:49 36.212981 -115.186608 70 2175ft 0kts
13-Jul-20 14:50 36.213568 -115.188410 266 2179ft 67kts
13-Jul-20 14:51 36.218181 -115.238385 274 4461ft 175kts
13-Jul-20 14:52 36.249055 -115.286650 353 6588ft 204kts
13-Jul-20 14:53 36.259274 -115.242534 170 8861ft 167kts
13-Jul-20 14:54 36.208836 -115.233990 161 10573ft 213kts
13-Jul-20 14:55 36.161574 -115.248213 265 12480ft 230kts
13-Jul-20 14:56 36.141638 -115.321722 243 14510ft 231kts
13-Jul-20 14:57 36.114587 -115.394232 242 16488ft 233kts
13-Jul-20 14:58 36.087542 -115.466080 242 18451ft 229kts
13-Jul-20 14:59 36.060922 -115.536623 242 20414ft 223kts
13-Jul-20 15:00 36.035231 -115.604542 242 22361ft 216kts
13-Jul-20 15:01 36.009808 -115.671563 241 24108ft 221kts
13-Jul-20 15:02 35.983031 -115.742099 241 25480ft 230kts
13-Jul-20 15:03 35.955628 -115.814096 242 26740ft 235kts
13-Jul-20 15:04 35.927444 -115.887968 242 27839ft 240kts
13-Jul-20 15:05 35.908041 -115.970547 290 27890ft 281kts
13-Jul-20 15:06 35.971066 -116.034922 321 27902ft 308kts
13-Jul-20 15:07 36.042502 -116.095637 322 27897ft 315kts
13-Jul-20 15:08 36.115360 -116.157631 322 27897ft 320kts
13-Jul-20 15:09 36.188779 -116.220238 322 27897ft 323kts
13-Jul-20 15:10 36.262835 -116.283539 322 27897ft 323kts
13-Jul-20 15:11 36.336757 -116.346873 322 27897ft 324kts
13-Jul-20 15:12 36.410734 -116.410403 322 27897ft 324kts
13-Jul-20 15:13 36.484843 -116.474199 322 27879ft 324kts
13-Jul-20 15:14 36.558828 -116.538039 322 27879ft 324kts
13-Jul-20 15:15 36.632742 -116.601969 322 27879ft 324kts
13-Jul-20 15:16 36.706940 -116.666298 321 27881ft 324kts
13-Jul-20 15:17 36.780838 -116.730520 321 27881ft 324kts
13-Jul-20 15:18 36.851531 -116.799381 317 27913ft 323kts
13-Jul-20 15:19 36.921091 -116.870064 317 28004ft 321kts
13-Jul-20 15:20 36.990174 -116.940430 317 28074ft 321kts
13-Jul-20 15:21 37.059187 -117.010912 316 28074ft 320kts
13-Jul-20 15:22 37.127117 -117.080453 316 28071ft 317kts
13-Jul-20 15:23 37.195268 -117.150384 316 28071ft 316kts
13-Jul-20 15:24 37.262867 -117.219911 316 28071ft 315kts
13-Jul-20 15:25 37.330493 -117.289634 316 28070ft 315kts
13-Jul-20 15:26 37.398165 -117.359578 316 28071ft 315kts
13-Jul-20 15:27 37.465731 -117.429571 316 28042ft 315kts
13-Jul-20 15:28 37.533197 -117.499640 316 28037ft 315kts
13-Jul-20 15:29 37.600519 -117.569723 316 28064ft 314kts
13-Jul-20 15:30 37.667912 -117.640053 316 28054ft 315kts
13-Jul-20 15:31 37.735527 -117.710783 316 28020ft 316kts
13-Jul-20 15:32 37.803141 -117.781688 316 27982ft 316kts
13-Jul-20 15:33 37.870782 -117.852799 316 27946ft 316kts
13-Jul-20 15:34 37.938361 -117.924017 316 27951ft 316kts
13-Jul-20 15:35 38.005522 -117.994973 316 27977ft 315kts
13-Jul-20 15:36 38.072819 -118.066248 316 27979ft 315kts
13-Jul-20 15:37 38.140131 -118.137710 316 27970ft 315kts
13-Jul-20 15:38 38.207220 -118.209118 316 27970ft 315kts
13-Jul-20 15:39 38.274456 -118.280862 316 27970ft 315kts
13-Jul-20 15:40 38.341226 -118.352281 316 27970ft 315kts
13-Jul-20 15:41 38.410350 -118.426432 316 26883ft 341kts
13-Jul-20 15:42 38.484553 -118.506216 316 25378ft 354kts
13-Jul-20 15:43 38.560242 -118.587827 317 23869ft 359kts
13-Jul-20 15:44 38.635237 -118.668914 316 23058ft 346kts
13-Jul-20 15:45 38.707819 -118.747635 316 22556ft 340kts
13-Jul-20 15:46 38.779595 -118.825699 316 22058ft 338kts
13-Jul-20 15:47 38.851103 -118.903666 316 21559ft 338kts
13-Jul-20 15:48 38.922400 -118.981627 316 21062ft 337kts
13-Jul-20 15:49 38.993504 -119.059598 316 20404ft 340kts
13-Jul-20 15:50 39.066436 -119.139799 316 18782ft 351kts
13-Jul-20 15:51 39.139974 -119.220854 316 17085ft 345kts
13-Jul-20 15:52 39.211230 -119.299575 315 16061ft 327kts
13-Jul-20 15:53 39.279184 -119.374908 315 16060ft 321kts
13-Jul-20 15:54 39.361729 -119.415687 353 15132ft 340kts
13-Jul-20 15:55 39.454031 -119.423412 353 13106ft 325kts
13-Jul-20 15:56 39.514380 -119.479629 273 11133ft 287kts
13-Jul-20 15:57 39.516681 -119.576751 274 8734ft 266kts
13-Jul-20 15:58 39.523487 -119.662705 279 7057ft 212kts
13-Jul-20 15:59 39.509520 -119.710687 208 5879ft 102kts
13-Jul-20 16:00 39.496056 -119.738830 269 4962ft 97kts
13-Jul-20 16:01 39.496258 -119.764785 296 4418ft 12kts
13-Jul-20 16:02 39.500379 -119.765195 6 4418ft 10kts
13-Jul-20 16:03 39.501396 -119.764785 94 4418ft 0kts

Navigation Log

Ident Type
Flight plan parsing failed, navigation log unavailable